Time;durP1;ratioP1;P1;durP2;ratioP2;P2;SDS_P1;SDS_P2;PMS_P1;PMS_P2;Temp;Humidity;BMP_temperature;BMP_pressure;BME280_temperature;BME280_humidity;BME280_pressure;Samples;Min_cycle;Max_cycle;Signal;HPM_P1;HPM_P2
2021/04/07 08:33:29;;;;;;;;;;;;;;;8.41;64.76;98654.39;1761502;80;20476;-74
2021/04/07 08:35:57;;;;;;;;;;;;;;;8.49;64.69;98650.53;1789891;79;20461;-73
2021/04/07 08:38:33;;;;;;;;;;;;;;;8.59;64.55;98653.91;1745366;81;20223;-73
2021/04/07 08:41:12;;;;;;;;;;;;;;;8.59;64.19;98653.08;1839853;77;22115;-73
2021/04/07 08:43:46;;;;;;;;;;;;;;;8.53;63.95;98651.86;1850393;77;20493;-72
2021/04/07 08:46:16;;;;;;;;;;;;;;;8.46;63.92;98653.92;1824417;77;20246;-74
2021/04/07 08:48:45;;;;;;;;;;;;;;;8.39;63.97;98651.55;1838682;77;20576;-74
2021/04/07 08:51:14;;;;;;;;;;;;;;;8.33;64.07;98650.33;1824360;77;20361;-75
2021/04/07 08:53:48;;;;;;;;;;;;;;;8.33;64.07;98647.21;1844759;77;22957;-76
2021/04/07 08:56:19;;;;;;;;;;;;;;;8.31;64.28;98641.77;1847787;77;20443;-72
2021/04/07 08:58:51;;;;;;;;;;;;;;;8.36;64.44;98638.70;1833641;77;20254;-74
2021/04/07 09:01:32;;;;;;;;;;;;;;;8.44;64.54;98634.84;1835644;76;20475;-73
2021/04/07 09:04:10;;;;;;;;;;;;;;;8.51;64.60;98638.04;1849015;77;20209;-71
2021/04/07 09:06:39;;;;;;;;;;;;;;;8.61;64.45;98628.75;1845620;77;22973;-72
2021/04/07 09:09:07;;;;;;;;;;;;;;;8.62;64.37;98629.08;1849684;77;21410;-72
2021/04/07 09:11:36;;;;;;;;;;;;;;;8.65;64.47;98630.58;1841337;76;20254;-72
2021/04/07 09:14:06;;;;;;;;;;;;;;;8.68;64.31;98631.58;1831777;77;20225;-72
2021/04/07 09:16:39;;;;;;;;;;;;;;;8.67;64.37;98625.98;1843199;77;20180;-72
2021/04/07 09:19:18;;;;;;;;;;;;;;;8.64;64.22;98619.22;1835486;77;21886;-72
2021/04/07 09:22:07;;;;;;;;;;;;;;;8.55;64.29;98621.45;1834221;77;20479;-73
2021/04/07 09:24:42;;;;;;;;;;;;;;;8.52;64.45;98609.43;1817527;77;20213;-74
2021/04/07 09:27:20;;;;;;;;;;;;;;;8.44;64.49;98613.80;1837093;77;20525;-72
2021/04/07 09:29:48;;;;;;;;;;;;;;;8.34;64.71;98617.78;1840836;76;20307;-73
2021/04/07 09:32:17;;;;;;;;;;;;;;;8.27;64.92;98607.03;1845515;77;22149;-71
2021/04/07 09:34:45;;;;;;;;;;;;;;;8.16;65.17;98605.11;1847357;77;20304;-72
2021/04/07 09:37:13;;;;;;;;;;;;;;;8.02;65.42;98601.21;1824008;77;20223;-71
2021/04/07 09:39:41;;;;;;;;;;;;;;;7.93;65.76;98598.16;1832112;77;20471;-71
2021/04/07 09:42:09;;;;;;;;;;;;;;;7.88;66.05;98597.77;1829553;77;20262;-72
2021/04/07 09:44:37;;;;;;;;;;;;;;;7.81;66.32;98606.71;1835381;77;22984;-72
2021/04/07 09:47:05;;;;;;;;;;;;;;;7.72;66.62;98609.77;1822823;77;20411;-74
2021/04/07 09:49:33;;;;;;;;;;;;;;;7.69;66.81;98606.09;1835993;77;20325;-72
2021/04/07 09:52:01;;;;;;;;;;;;;;;7.68;67.07;98607.56;1831109;77;20986;-73
2021/04/07 09:54:31;;;;;;;;;;;;;;;7.65;67.30;98602.12;1808836;79;20590;-74
2021/04/07 09:57:02;;;;;;;;;;;;;;;7.62;67.53;98601.08;1827918;77;21890;-73
2021/04/07 09:59:36;;;;;;;;;;;;;;;7.63;67.67;98601.94;1849069;77;20328;-73
2021/04/07 10:02:24;;;;;;;;;;;;;;;7.66;67.84;98599.00;1848689;77;20285;-73
2021/04/07 10:04:53;;;;;;;;;;;;;;;7.68;67.98;98609.70;1846842;77;20482;-74
2021/04/07 10:07:28;;;;;;;;;;;;;;;7.77;68.03;98603.23;1828638;77;20508;-75
2021/04/07 10:09:59;;;;;;;;;;;;;;;7.84;67.99;98606.44;1843033;77;22168;-74
2021/04/07 10:12:29;;;;;;;;;;;;;;;7.86;67.92;98606.29;1842361;77;20372;-75
2021/04/07 10:14:59;;;;;;;;;;;;;;;7.83;67.96;98608.73;1845051;77;20217;-75
2021/04/07 10:17:32;;;;;;;;;;;;;;;7.81;67.99;98600.14;1826416;77;20450;-75
2021/04/07 10:20:11;;;;;;;;;;;;;;;7.80;67.99;98611.63;1844857;76;20209;-75
2021/04/07 10:22:40;;;;;;;;;;;;;;;7.81;68.09;98608.02;1846426;77;22868;-75
2021/04/07 10:25:13;;;;;;;;;;;;;;;7.83;68.12;98614.48;1816143;77;20334;-75
2021/04/07 10:27:41;;;;;;;;;;;;;;;7.86;68.11;98616.31;1839230;77;20228;-75
2021/04/07 10:30:35;;;;;;;;;;;;;;;7.87;68.08;98617.97;1831218;77;20483;-75
2021/04/07 10:33:05;;;;;;;;;;;;;;;7.90;67.97;98612.89;1832384;77;20380;-74
2021/04/07 10:35:35;;;;;;;;;;;;;;;7.87;67.91;98615.83;1825288;77;22125;-75
2021/04/07 10:38:04;;;;;;;;;;;;;;;7.85;67.94;98617.29;1823180;77;20291;-74
2021/04/07 10:40:33;;;;;;;;;;;;;;;7.88;67.93;98617.48;1807202;77;20222;-74
2021/04/07 10:43:14;;;;;;;;;;;;;;;7.81;67.95;98618.54;1778914;79;20538;-74
2021/04/07 10:45:47;;;;;;;;;;;;;;;7.72;68.07;98620.28;1760458;80;20245;-74
2021/04/07 10:48:18;;;;;;;;;;;;;;;7.69;68.30;98627.60;1753661;80;22057;-75
2021/04/07 10:50:46;;;;;;;;;;;;;;;7.68;68.44;98631.20;1749461;80;20335;-74
2021/04/07 10:53:14;;;;;;;;;;;;;;;7.61;68.57;98636.21;1757095;80;20529;-74
2021/04/07 10:55:42;;;;;;;;;;;;;;;7.61;68.74;98643.27;1770992;81;20582;-74
2021/04/07 10:58:11;;;;;;;;;;;;;;;7.42;68.74;98646.80;1762349;81;20306;-74
2021/04/07 11:00:39;;;;;;;;;;;;;;;7.16;69.13;98655.33;1762404;81;22073;-73
2021/04/07 11:03:08;;;;;;;;;;;;;;;6.99;69.50;98659.16;1760213;81;20360;-72
2021/04/07 11:05:40;;;;;;;;;;;;;;;6.73;69.93;98664.98;1768719;80;20214;-74
2021/04/07 11:08:10;;;;;;;;;;;;;;;6.49;70.33;98665.90;1812128;77;20452;-73
2021/04/07 11:10:44;;;;;;;;;;;;;;;6.31;70.61;98666.56;1838106;77;20258;-73
2021/04/07 11:13:12;;;;;;;;;;;;;;;6.22;70.81;98652.97;1833500;77;22793;-73
2021/04/07 11:15:42;;;;;;;;;;;;;;;6.16;70.92;98647.43;1820579;77;20234;-73
2021/04/07 11:18:20;;;;;;;;;;;;;;;6.07;71.08;98654.31;1842120;76;20219;-73
2021/04/07 11:20:59;;;;;;;;;;;;;;;5.97;71.21;98652.98;1831001;77;20305;-73
2021/04/07 11:23:28;;;;;;;;;;;;;;;5.85;71.36;98657.13;1830672;76;20269;-74
2021/04/07 11:25:56;;;;;;;;;;;;;;;5.70;71.65;98657.52;1838121;77;21742;-75
2021/04/07 11:28:25;;;;;;;;;;;;;;;5.61;71.83;98650.94;1814217;77;20277;-73
2021/04/07 11:31:03;;;;;;;;;;;;;;;5.58;72.08;98649.39;1825658;77;20281;-72
2021/04/07 11:33:40;;;;;;;;;;;;;;;5.58;72.23;98648.08;1818024;76;20315;-72
2021/04/07 11:38:55;;;;;;;;;;;;;;;5.61;72.30;98640.47;1809745;78;20276;-74
2021/04/07 11:41:48;;;;;;;;;;;;;;;5.65;72.29;98640.05;1803710;79;21229;-72
2021/04/07 11:46:38;;;;;;;;;;;;;;;5.74;71.96;98630.56;1804803;79;20359;-72
2021/04/07 11:49:06;;;;;;;;;;;;;;;5.66;71.71;98640.39;1806830;79;20286;-72
2021/04/07 11:51:41;;;;;;;;;;;;;;;5.62;71.75;98641.63;1803932;79;22968;-72
2021/04/07 11:54:10;;;;;;;;;;;;;;;5.64;71.65;98638.39;1804433;77;20378;-73
2021/04/07 11:56:41;;;;;;;;;;;;;;;5.62;71.46;98636.87;1797770;79;20297;-73
2021/04/07 11:59:08;;;;;;;;;;;;;;;5.58;71.37;98636.78;1786009;79;20461;-72
2021/04/07 12:01:36;;;;;;;;;;;;;;;5.57;71.41;98627.27;1808219;79;20232;-72
2021/04/07 12:04:04;;;;;;;;;;;;;;;5.58;71.38;98623.69;1811993;79;22888;-71
2021/04/07 12:06:34;;;;;;;;;;;;;;;5.54;71.28;98632.78;1797847;79;20271;-79
2021/04/07 12:09:03;;;;;;;;;;;;;;;5.48;71.26;98637.22;1802164;78;20274;-74
2021/04/07 12:11:31;;;;;;;;;;;;;;;5.43;71.34;98635.84;1809256;79;20485;-73
2021/04/07 12:13:59;;;;;;;;;;;;;;;5.40;71.37;98649.66;1807850;79;20210;-73
2021/04/07 12:16:29;;;;;;;;;;;;;;;5.36;71.52;98646.48;1785808;78;22208;-72
2021/04/07 12:18:57;;;;;;;;;;;;;;;5.29;71.49;98645.82;1806839;78;20361;-75
2021/04/07 12:21:25;;;;;;;;;;;;;;;5.21;71.65;98642.57;1808418;79;20396;-73
2021/04/07 12:23:53;;;;;;;;;;;;;;;5.17;71.81;98648.53;1770959;79;20307;-72
2021/04/07 12:26:22;;;;;;;;;;;;;;;5.10;71.91;98652.61;1766614;81;20274;-74
2021/04/07 12:28:51;;;;;;;;;;;;;;;5.04;72.12;98651.02;1802543;79;22073;-73
2021/04/07 12:31:20;;;;;;;;;;;;;;;4.92;72.38;98654.16;1787312;79;20265;-75
2021/04/07 12:33:58;;;;;;;;;;;;;;;4.76;72.70;98660.33;1809327;79;20271;-73
2021/04/07 12:36:26;;;;;;;;;;;;;;;4.65;73.18;98673.46;1810961;79;20321;-72
2021/04/07 12:38:57;;;;;;;;;;;;;;;4.56;73.49;98677.66;1817192;77;20210;-77
2021/04/07 12:41:31;;;;;;;;;;;;;;;4.50;73.80;98682.89;1840119;77;22013;-75
2021/04/07 12:43:58;;;;;;;;;;;;;;;4.39;74.18;98682.94;1845559;77;20377;-74
2021/04/07 12:46:25;;;;;;;;;;;;;;;4.28;74.57;98681.67;1851073;77;20214;-73
2021/04/07 12:48:53;;;;;;;;;;;;;;;4.19;74.96;98683.24;1851101;77;20472;-78
2021/04/07 12:51:22;;;;;;;;;;;;;;;4.09;75.22;98679.70;1847130;77;20250;-73
2021/04/07 12:53:51;;;;;;;;;;;;;;;3.97;75.55;98681.52;1848323;77;21891;-73
2021/04/07 12:56:19;;;;;;;;;;;;;;;3.88;76.08;98682.72;1844721;77;20377;-73
2021/04/07 12:58:48;;;;;;;;;;;;;;;3.74;76.15;98669.42;1847653;77;20222;-74
2021/04/07 13:01:16;;;;;;;;;;;;;;;3.58;76.19;98669.81;1850216;77;21020;-72
2021/04/07 13:03:44;;;;;;;;;;;;;;;3.44;76.46;98685.22;1843522;77;20291;-73
2021/04/07 13:06:12;;;;;;;;;;;;;;;3.35;76.78;98700.27;1846257;77;22064;-72
2021/04/07 13:08:40;;;;;;;;;;;;;;;3.23;77.03;98705.13;1845464;77;20230;-73
2021/04/07 13:11:11;;;;;;;;;;;;;;;3.13;77.21;98721.13;1833009;77;20214;-72
2021/04/07 13:13:40;;;;;;;;;;;;;;;3.04;77.42;98721.81;1808510;79;20381;-72
2021/04/07 13:16:08;;;;;;;;;;;;;;;2.97;77.47;98723.20;1816771;79;20500;-72
2021/04/07 13:18:36;;;;;;;;;;;;;;;2.88;77.58;98726.02;1816722;79;21826;-72
2021/04/07 13:21:13;;;;;;;;;;;;;;;2.83;77.70;98739.89;1811725;79;20240;-72
2021/04/07 13:23:39;;;;;;;;;;;;;;;2.72;77.83;98750.28;1774107;80;20413;-72
2021/04/07 13:26:09;;;;;;;;;;;;;;;2.59;78.19;98750.31;1764450;80;20474;-71
2021/04/07 13:28:38;;;;;;;;;;;;;;;2.46;78.20;98757.37;1765471;81;20215;-71
2021/04/07 13:31:09;;;;;;;;;;;;;;;2.35;78.40;98769.03;1793277;80;21886;-72
2021/04/07 13:33:46;;;;;;;;;;;;;;;2.24;78.51;98773.23;1816787;79;21394;-72
2021/04/07 13:36:09;;;;;;;;;;;;;;;2.18;78.65;98785.84;1794179;79;20289;-72
2021/04/07 13:39:02;;;;;;;;;;;;;;;2.18;78.66;98780.64;1805140;78;20459;-72
2021/04/07 13:43:48;;;;;;;;;;;;;;;2.03;78.72;98782.56;1822296;77;21881;-71
2021/04/07 13:46:18;;;;;;;;;;;;;;;1.97;78.75;98790.31;1845340;77;20404;-73
2021/04/07 13:48:45;;;;;;;;;;;;;;;1.88;78.67;98799.23;1850212;77;20234;-73
2021/04/07 13:51:14;;;;;;;;;;;;;;;1.70;78.78;98805.22;1841235;77;20303;-75
2021/04/07 13:53:43;;;;;;;;;;;;;;;1.61;78.91;98817.55;1829658;77;20400;-73
2021/04/07 13:56:17;;;;;;;;;;;;;;;1.57;79.11;98818.71;1843318;77;22060;-73
2021/04/07 13:58:42;;;;;;;;;;;;;;;1.50;79.18;98823.95;1841366;76;21664;-73
2021/04/07 14:01:12;;;;;;;;;;;;;;;1.43;79.16;98834.76;1836571;77;20209;-74
2021/04/07 14:03:41;;;;;;;;;;;;;;;1.42;79.35;98835.70;1847118;77;21289;-73
2021/04/07 14:06:12;;;;;;;;;;;;;;;1.38;79.34;98838.15;1851885;77;20214;-74
2021/04/07 14:08:41;;;;;;;;;;;;;;;1.35;79.42;98838.80;1843966;77;20406;-75
2021/04/07 14:11:11;;;;;;;;;;;;;;;1.31;79.55;98842.55;1814365;77;20420;-74
2021/04/07 14:13:39;;;;;;;;;;;;;;;1.28;79.59;98850.56;1847606;77;20209;-73
2021/04/07 14:16:08;;;;;;;;;;;;;;;1.29;79.68;98869.14;1847172;77;21773;-72
2021/04/07 14:18:36;;;;;;;;;;;;;;;1.29;79.66;98871.73;1837203;77;20213;-75
2021/04/07 14:21:04;;;;;;;;;;;;;;;1.21;79.63;98861.83;1835045;77;22054;-72
2021/04/07 14:23:32;;;;;;;;;;;;;;;1.12;79.65;98848.13;1831323;77;20556;-72
2021/04/07 14:26:00;;;;;;;;;;;;;;;1.06;79.72;98855.88;1847799;77;20217;-73
2021/04/07 14:28:28;;;;;;;;;;;;;;;1.06;79.89;98861.07;1808688;79;22192;-72
2021/04/07 14:30:56;;;;;;;;;;;;;;;1.04;79.94;98869.41;1827639;77;20688;-74
2021/04/07 14:33:24;;;;;;;;;;;;;;;1.01;79.93;98864.42;1833354;77;22065;-73
2021/04/07 14:35:52;;;;;;;;;;;;;;;0.98;80.01;98858.59;1842292;77;21379;-74
2021/04/07 14:38:20;;;;;;;;;;;;;;;0.96;80.14;98856.53;1848636;77;20381;-75
2021/04/07 14:40:50;;;;;;;;;;;;;;;0.92;80.23;98860.28;1848183;77;20820;-75
2021/04/07 14:43:18;;;;;;;;;;;;;;;0.91;80.33;98864.64;1850608;77;20484;-74
2021/04/07 14:45:47;;;;;;;;;;;;;;;0.91;80.38;98859.45;1848093;76;22127;-75
2021/04/07 14:48:15;;;;;;;;;;;;;;;0.93;80.60;98867.97;1844326;77;21206;-74
2021/04/07 14:50:49;;;;;;;;;;;;;;;0.94;80.61;98869.64;1846818;77;20270;-75
2021/04/07 14:53:18;;;;;;;;;;;;;;;0.99;80.72;98870.66;1850193;77;20303;-75
2021/04/07 14:55:41;;;;;;;;;;;;;;;0.99;80.74;98868.06;1848299;77;20266;-75
2021/04/07 14:58:08;;;;;;;;;;;;;;;0.96;80.87;98870.36;1847618;76;22505;-74
2021/04/07 15:00:36;;;;;;;;;;;;;;;0.97;80.99;98870.77;1847607;76;20275;-72
2021/04/07 15:03:04;;;;;;;;;;;;;;;1.00;81.07;98878.83;1849616;77;20222;-74
2021/04/07 15:05:32;;;;;;;;;;;;;;;0.98;81.18;98883.29;1845011;77;20698;-73
2021/04/07 15:07:59;;;;;;;;;;;;;;;0.97;81.34;98893.33;1833254;76;20377;-75
2021/04/07 15:10:28;;;;;;;;;;;;;;;0.96;81.35;98883.36;1848456;76;20727;-76
2021/04/07 15:12:57;;;;;;;;;;;;;;;0.99;81.42;98875.39;1849692;77;20457;-74
2021/04/07 15:15:25;;;;;;;;;;;;;;;1.01;81.55;98878.72;1848545;76;20265;-74
2021/04/07 15:17:52;;;;;;;;;;;;;;;1.03;81.66;98883.81;1846967;76;22108;-73
2021/04/07 15:20:21;;;;;;;;;;;;;;;1.06;81.67;98894.01;1829806;77;20220;-74
2021/04/07 15:22:52;;;;;;;;;;;;;;;1.07;81.66;98897.84;1829500;76;23063;-73
2021/04/07 15:25:28;;;;;;;;;;;;;;;1.09;81.72;98890.77;1846658;77;21443;-73
2021/04/07 15:28:34;;;;;;;;;;;;;;;1.12;81.76;98891.03;1848053;77;20273;-75
2021/04/07 15:30:23;;;;;;;;;;;;;;;1.15;81.79;98898.62;1831345;77;21371;-72
2021/04/07 15:32:52;;;;;;;;;;;;;;;1.15;81.84;98901.22;1849700;77;20289;-70
2021/04/07 15:35:22;;;;;;;;;;;;;;;1.11;81.85;98904.50;1846993;77;21876;-74
2021/04/07 15:37:54;;;;;;;;;;;;;;;1.13;81.89;98903.09;1834915;77;20386;-73
2021/04/07 15:40:22;;;;;;;;;;;;;;;1.14;81.98;98908.19;1849376;77;20277;-73
2021/04/07 15:42:51;;;;;;;;;;;;;;;1.17;82.01;98906.35;1859755;76;20531;-73
2021/04/07 15:45:18;;;;;;;;;;;;;;;1.19;82.06;98904.01;1827975;76;20402;-72
2021/04/07 15:47:46;;;;;;;;;;;;;;;1.22;82.10;98909.47;1807996;79;23390;-71
2021/04/07 15:50:14;;;;;;;;;;;;;;;1.24;82.11;98916.23;1838396;77;20376;-74
2021/04/07 15:52:42;;;;;;;;;;;;;;;1.25;82.10;98928.30;1836114;77;20210;-73
2021/04/07 15:55:10;;;;;;;;;;;;;;;1.27;82.12;98929.53;1850848;77;21683;-73
2021/04/07 15:57:38;;;;;;;;;;;;;;;1.26;82.13;98927.40;1851065;77;20214;-75
2021/04/07 16:00:07;;;;;;;;;;;;;;;1.25;82.11;98933.50;1849592;77;21879;-73
2021/04/07 16:02:41;;;;;;;;;;;;;;;1.24;82.14;98934.44;1836826;77;20886;-72
2021/04/07 16:05:09;;;;;;;;;;;;;;;1.23;82.22;98943.18;1848681;77;20262;-73
2021/04/07 16:07:36;;;;;;;;;;;;;;;1.23;82.21;98934.08;1839260;77;20696;-74
2021/04/07 16:10:06;;;;;;;;;;;;;;;1.26;82.28;98935.67;1844782;76;20289;-73
2021/04/07 16:12:33;;;;;;;;;;;;;;;1.26;82.27;98943.00;1844993;77;23445;-72
2021/04/07 16:15:03;;;;;;;;;;;;;;;1.27;82.30;98951.64;1840599;77;20383;-71
2021/04/07 16:17:31;;;;;;;;;;;;;;;1.28;82.27;98958.51;1839973;77;20273;-71
2021/04/07 16:20:00;;;;;;;;;;;;;;;1.30;82.28;98965.73;1841934;77;20303;-73
2021/04/07 16:22:27;;;;;;;;;;;;;;;1.29;82.28;98971.41;1824678;77;20323;-72
2021/04/07 16:24:55;;;;;;;;;;;;;;;1.28;82.27;98978.84;1845419;77;21990;-71
2021/04/07 16:27:22;;;;;;;;;;;;;;;1.28;82.29;98973.64;1847286;77;20304;-72
2021/04/07 16:29:50;;;;;;;;;;;;;;;1.26;82.28;98983.31;1842212;77;20245;-71
2021/04/07 16:32:17;;;;;;;;;;;;;;;1.24;82.37;98989.53;1844027;77;20531;-70
2021/04/07 16:34:45;;;;;;;;;;;;;;;1.25;82.38;98998.99;1823331;77;20265;-71
2021/04/07 16:37:13;;;;;;;;;;;;;;;1.26;82.33;98997.63;1848343;77;20333;-72
2021/04/07 16:39:41;;;;;;;;;;;;;;;1.28;82.37;98997.05;1841745;76;20376;-71
2021/04/07 16:42:09;;;;;;;;;;;;;;;1.29;82.35;99005.22;1843863;76;20469;-71
2021/04/07 16:44:37;;;;;;;;;;;;;;;1.32;82.35;99010.69;1863814;76;20410;-71
2021/04/07 16:47:06;;;;;;;;;;;;;;;1.33;82.31;99022.76;1848181;76;20253;-71
2021/04/07 16:49:34;;;;;;;;;;;;;;;1.33;82.25;99024.06;1819410;77;21816;-71
2021/04/07 16:52:02;;;;;;;;;;;;;;;1.33;82.24;99029.27;1841861;76;20550;-71
2021/04/07 16:54:31;;;;;;;;;;;;;;;1.34;82.23;99035.66;1845228;76;20213;-72
2021/04/07 16:57:01;;;;;;;;;;;;;;;1.37;82.21;99036.80;1849134;77;20527;-72
2021/04/07 16:59:28;;;;;;;;;;;;;;;1.38;82.18;99042.83;1822286;76;20219;-74
2021/04/07 17:01:55;;;;;;;;;;;;;;;1.39;82.19;99056.20;1822300;77;22046;-75
2021/04/07 17:04:22;;;;;;;;;;;;;;;1.40;82.15;99060.01;1804154;79;21213;-74
2021/04/07 17:06:49;;;;;;;;;;;;;;;1.42;82.11;99065.11;1856216;76;20626;-70
2021/04/07 17:09:18;;;;;;;;;;;;;;;1.44;82.09;99065.84;1843431;76;20530;-74
2021/04/07 17:11:45;;;;;;;;;;;;;;;1.44;82.00;99075.78;1839873;77;20295;-73
2021/04/07 17:14:12;;;;;;;;;;;;;;;1.45;81.99;99081.85;1839142;76;21875;-73
2021/04/07 17:16:40;;;;;;;;;;;;;;;1.47;81.96;99088.25;1845267;77;20347;-71
2021/04/07 17:19:09;;;;;;;;;;;;;;;1.47;81.92;99089.09;1850076;77;20330;-72
2021/04/07 17:21:39;;;;;;;;;;;;;;;1.46;81.80;99086.59;1841374;77;21438;-71
2021/04/07 17:24:08;;;;;;;;;;;;;;;1.47;81.83;99096.89;1842203;77;20297;-72
2021/04/07 17:26:35;;;;;;;;;;;;;;;1.49;81.80;99087.69;1849513;77;22046;-72
2021/04/07 17:29:03;;;;;;;;;;;;;;;1.49;81.74;99093.72;1848181;77;20478;-72
2021/04/07 17:31:31;;;;;;;;;;;;;;;1.48;81.66;99084.72;1839812;77;20282;-73
2021/04/07 17:33:58;;;;;;;;;;;;;;;1.48;81.63;99093.36;1842330;77;20441;-74
2021/04/07 17:36:26;;;;;;;;;;;;;;;1.46;81.57;99103.03;1831847;77;20241;-72
2021/04/07 17:38:53;;;;;;;;;;;;;;;1.45;81.56;99090.95;1797743;79;21885;-73
2021/04/07 17:41:20;;;;;;;;;;;;;;;1.46;81.57;99087.89;1793415;79;20369;-75
2021/04/07 17:43:49;;;;;;;;;;;;;;;1.47;81.55;99094.76;1791994;80;20268;-74
2021/04/07 17:46:16;;;;;;;;;;;;;;;1.47;81.49;99090.85;1791930;79;20999;-73
2021/04/07 17:48:43;;;;;;;;;;;;;;;1.47;81.49;99091.69;1793973;79;20207;-75
2021/04/07 17:51:11;;;;;;;;;;;;;;;1.48;81.44;99102.93;1797465;79;22666;-75
2021/04/07 17:53:39;;;;;;;;;;;;;;;1.47;81.42;99109.06;1782633;79;20713;-73
2021/04/07 17:56:07;;;;;;;;;;;;;;;1.47;81.40;99112.97;1794945;79;20248;-76
2021/04/07 17:58:36;;;;;;;;;;;;;;;1.47;81.34;99110.38;1760676;79;20532;-75
2021/04/07 18:01:07;;;;;;;;;;;;;;;1.49;81.33;99113.23;1794168;79;20741;-75
2021/04/07 18:03:36;;;;;;;;;;;;;;;1.51;81.27;99103.56;1792626;79;22820;-76
2021/04/07 18:06:04;;;;;;;;;;;;;;;1.52;81.26;99097.42;1795227;78;20377;-76
2021/04/07 18:08:31;;;;;;;;;;;;;;;1.54;81.21;99102.06;1799758;78;20429;-73
2021/04/07 18:10:59;;;;;;;;;;;;;;;1.57;81.20;99112.30;1796435;78;20500;-76
2021/04/07 18:13:26;;;;;;;;;;;;;;;1.59;81.10;99126.05;1785555;79;20288;-77
2021/04/07 18:15:55;;;;;;;;;;;;;;;1.57;81.01;99122.70;1728441;81;20368;-76
2021/04/07 18:18:23;;;;;;;;;;;;;;;1.57;80.98;99137.48;1804638;79;20261;-74
2021/04/07 18:20:52;;;;;;;;;;;;;;;1.56;80.89;99146.23;1780269;79;20547;-75
2021/04/07 18:23:20;;;;;;;;;;;;;;;1.55;80.85;99152.37;1809139;79;20935;-74
2021/04/07 18:25:48;;;;;;;;;;;;;;;1.52;80.79;99152.06;1814639;79;20281;-76
2021/04/07 18:28:15;;;;;;;;;;;;;;;1.50;80.81;99160.91;1810720;79;21887;-76
2021/04/07 18:30:45;;;;;;;;;;;;;;;1.52;80.86;99170.75;1800558;79;20604;-74
2021/04/07 18:33:19;;;;;;;;;;;;;;;1.52;80.85;99175.95;1797669;79;20767;-75
2021/04/07 18:35:49;;;;;;;;;;;;;;;1.52;80.84;99180.69;1777799;79;20228;-75
2021/04/07 18:38:18;;;;;;;;;;;;;;;1.51;80.83;99169.91;1814292;78;20281;-76
2021/04/07 18:40:46;;;;;;;;;;;;;;;1.51;80.81;99184.23;1823884;78;23089;-74
2021/04/07 18:43:14;;;;;;;;;;;;;;;1.52;80.87;99189.80;1814391;78;20848;-74
2021/04/07 18:45:41;;;;;;;;;;;;;;;1.54;80.86;99184.50;1811687;76;20268;-73
2021/04/07 18:48:10;;;;;;;;;;;;;;;1.54;80.80;99185.33;1830680;77;21719;-73
2021/04/07 18:50:38;;;;;;;;;;;;;;;1.55;80.79;99189.63;1840373;77;20245;-73
2021/04/07 18:53:05;;;;;;;;;;;;;;;1.54;80.73;99189.23;1826565;77;23373;-77
2021/04/07 18:55:38;;;;;;;;;;;;;;;1.55;80.72;99185.73;1846702;77;20503;-78
2021/04/07 18:58:03;;;;;;;;;;;;;;;1.53;80.63;99182.83;1829623;76;20268;-78
2021/04/07 19:00:30;;;;;;;;;;;;;;;1.52;80.58;99194.17;1828086;77;21100;-77
2021/04/07 19:02:57;;;;;;;;;;;;;;;1.49;80.44;99193.90;1828221;77;20174;-79
2021/04/07 19:05:24;;;;;;;;;;;;;;;1.48;80.45;99201.34;1847522;77;23485;-74
2021/04/07 19:07:52;;;;;;;;;;;;;;;1.47;80.39;99199.67;1843510;77;20505;-74
2021/04/07 19:10:19;;;;;;;;;;;;;;;1.44;80.40;99192.86;1837981;77;20262;-73
2021/04/07 19:12:49;;;;;;;;;;;;;;;1.44;80.37;99192.03;1840275;77;20538;-74
2021/04/07 19:15:18;;;;;;;;;;;;;;;1.42;80.31;99197.33;1810169;78;20296;-74
2021/04/07 19:17:45;;;;;;;;;;;;;;;1.40;80.29;99197.06;1820387;78;22044;-74
2021/04/07 19:20:12;;;;;;;;;;;;;;;1.38;80.31;99206.73;1819544;77;21665;-73
2021/04/07 19:22:40;;;;;;;;;;;;;;;1.35;80.32;99207.76;1841297;77;20544;-74
2021/04/07 19:25:08;;;;;;;;;;;;;;;1.34;80.34;99225.56;1811822;79;21066;-74
2021/04/07 19:27:35;;;;;;;;;;;;;;;1.32;80.32;99220.09;1826721;77;20302;-75
2021/04/07 19:30:06;;;;;;;;;;;;;;;1.30;80.32;99217.59;1819991;77;22050;-74
2021/04/07 19:32:34;;;;;;;;;;;;;;;1.28;80.23;99219.45;1812576;78;20368;-74
2021/04/07 19:35:03;;;;;;;;;;;;;;;1.28;80.17;99214.72;1837806;77;33631;-75
2021/04/07 19:37:31;;;;;;;;;;;;;;;1.28;80.16;99218.62;1843045;77;20695;-75
2021/04/07 19:40:02;;;;;;;;;;;;;;;1.27;80.07;99224.75;1846569;77;20296;-73
2021/04/07 19:42:34;;;;;;;;;;;;;;;1.25;80.05;99227.88;1848823;77;22494;-74
2021/04/07 19:45:03;;;;;;;;;;;;;;;1.23;80.04;99231.05;1813369;77;20364;-74
2021/04/07 19:47:36;;;;;;;;;;;;;;;1.24;80.07;99239.22;1816366;79;20289;-74
2021/04/07 19:50:01;;;;;;;;;;;;;;;1.25;80.04;99241.72;1816123;78;21583;-75
2021/04/07 19:52:28;;;;;;;;;;;;;;;1.25;80.07;99248.69;1816382;78;20269;-74
2021/04/07 19:54:55;;;;;;;;;;;;;;;1.24;80.05;99250.92;1832188;76;21963;-74
2021/04/07 19:57:23;;;;;;;;;;;;;;;1.24;80.07;99258.26;1757655;79;20382;-74
2021/04/07 19:59:50;;;;;;;;;;;;;;;1.25;80.12;99270.80;1773787;80;20960;-76
2021/04/07 20:02:18;;;;;;;;;;;;;;;1.26;80.11;99270.73;1745323;81;22014;-77
2021/04/07 20:04:46;;;;;;;;;;;;;;;1.27;80.14;99270.27;1848865;76;20285;-73
2021/04/07 20:07:13;;;;;;;;;;;;;;;1.29;80.12;99284.02;1803167;79;23246;-77
2021/04/07 20:09:40;;;;;;;;;;;;;;;1.32;80.11;99281.22;1851046;76;20294;-77
2021/04/07 20:12:09;;;;;;;;;;;;;;;1.34;80.08;99288.00;1830616;76;20240;-75
2021/04/07 20:14:36;;;;;;;;;;;;;;;1.37;80.06;99304.75;1837104;77;20956;-75
2021/04/07 20:17:07;;;;;;;;;;;;;;;1.37;80.04;99306.52;1834031;77;20293;-72
2021/04/07 20:19:35;;;;;;;;;;;;;;;1.38;80.02;99309.49;1840313;77;22022;-75
2021/04/07 20:22:03;;;;;;;;;;;;;;;1.37;79.99;99316.92;1834492;77;20664;-74
2021/04/07 20:24:32;;;;;;;;;;;;;;;1.36;80.00;99325.20;1845793;77;20233;-75
2021/04/07 20:26:59;;;;;;;;;;;;;;;1.35;79.96;99322.23;1847653;77;21855;-76
2021/04/07 20:29:27;;;;;;;;;;;;;;;1.33;79.99;99318.85;1845207;77;20260;-74
2021/04/07 20:31:54;;;;;;;;;;;;;;;1.35;80.00;99321.36;1846444;77;21939;-74
2021/04/07 20:34:22;;;;;;;;;;;;;;;1.35;80.01;99322.66;1832506;77;20444;-77
2021/04/07 20:36:49;;;;;;;;;;;;;;;1.35;79.99;99323.53;1830952;77;20232;-80
2021/04/07 20:39:17;;;;;;;;;;;;;;;1.36;79.95;99328.27;1839731;76;20535;-77
2021/04/07 20:41:44;;;;;;;;;;;;;;;1.37;79.95;99335.14;1844635;76;20491;-77
2021/04/07 20:44:11;;;;;;;;;;;;;;;1.37;79.93;99333.84;1839283;77;22070;-77
2021/04/07 20:46:38;;;;;;;;;;;;;;;1.38;79.94;99340.72;1847742;76;20269;-77
2021/04/07 20:49:06;;;;;;;;;;;;;;;1.37;79.90;99329.94;1844726;77;20265;-77
2021/04/07 20:51:33;;;;;;;;;;;;;;;1.37;79.84;99335.97;1847886;77;22125;-76
2021/04/07 20:54:00;;;;;;;;;;;;;;;1.38;79.79;99331.14;1843852;76;20285;-76
2021/04/07 20:56:28;;;;;;;;;;;;;;;1.41;79.77;99332.25;1833530;77;22112;-75
2021/04/07 20:58:55;;;;;;;;;;;;;;;1.42;79.68;99332.63;1840594;77;20304;-76
2021/04/07 21:01:24;;;;;;;;;;;;;;;1.43;79.59;99327.79;1830765;77;20583;-75
2021/04/07 21:03:52;;;;;;;;;;;;;;;1.44;79.54;99333.83;1832914;77;21835;-73
2021/04/07 21:06:19;;;;;;;;;;;;;;;1.43;79.50;99330.39;1835704;77;20273;-74
2021/04/07 21:08:46;;;;;;;;;;;;;;;1.46;79.45;99338.50;1837125;77;23269;-76
2021/04/07 21:11:13;;;;;;;;;;;;;;;1.44;79.35;99334.67;1847246;77;20374;-74
2021/04/07 21:13:40;;;;;;;;;;;;;;;1.43;79.29;99330.39;1835526;77;20296;-77
2021/04/07 21:16:10;;;;;;;;;;;;;;;1.41;79.20;99332.25;1832805;77;20291;-76
2021/04/07 21:18:37;;;;;;;;;;;;;;;1.41;79.16;99334.02;1842744;76;20285;-76
2021/04/07 21:21:05;;;;;;;;;;;;;;;1.40;79.06;99334.95;1842545;77;22455;-76
2021/04/07 21:23:32;;;;;;;;;;;;;;;1.37;79.01;99335.97;1845242;76;20344;-82
2021/04/07 21:25:59;;;;;;;;;;;;;;;1.38;78.88;99340.72;1837360;77;20559;-76
2021/04/07 21:28:28;;;;;;;;;;;;;;;1.38;78.85;99343.31;1855249;76;20699;-76
2021/04/07 21:30:55;;;;;;;;;;;;;;;1.37;78.70;99350.75;1836020;76;20277;-76
2021/04/07 21:33:22;;;;;;;;;;;;;;;1.38;78.61;99352.42;1821979;77;22493;-75
2021/04/07 21:35:49;;;;;;;;;;;;;;;1.37;78.46;99358.55;1842925;76;20237;-76
2021/04/07 21:38:16;;;;;;;;;;;;;;;1.34;78.38;99357.41;1849951;77;20499;-77
2021/04/07 21:40:44;;;;;;;;;;;;;;;1.33;78.36;99355.73;1840014;77;20990;-77
2021/04/07 21:43:16;;;;;;;;;;;;;;;1.32;78.29;99363.17;1828148;77;20222;-78
2021/04/07 21:45:41;;;;;;;;;;;;;;;1.30;78.17;99365.03;1839195;77;23407;-77
2021/04/07 21:48:11;;;;;;;;;;;;;;;1.26;78.09;99366.14;1831576;77;20274;-78